Aeroporto :







RITROVATECI SU...

 
LOGIN :

Iscrizione | Disclaimer

   EN    FR    IT 

 









Sommario :    VFR   VFR Marginale   IFR   IFR Intensivo   IFR Molto Intensivo
Visibilità : 
Base nubi : 
>= 8 km
>= 3000ft
5 / 8 km
1000 / 3000 ft
1500m / 5 km
500 / 1000 ft
800 / 1500m
200 / 500 ft
< 800m
< 200 ft
Simboli :   Temporali  Nebbia  Neve Forte  Precipitazioni Forti  Vento > 20 kt






- Altitudine del aeroporto : 555 ft


KORE - Orange Municipal

ULTIMO METAR :
  • 102352Z AUTO 28006KT 8SM -RA OVC044 06/02 A2993 RMK AO2 SLP139 P0003 60005 T00610022 10117 20061 53068

METARs OBSOLETI :
  • 102252Z AUTO 30005KT 10SM -RA OVC033 07/03 A2986 RMK AO2 PK WND 31029/2201 WSHFT 2147 SLP114 P0001 T00720028
  • 102230Z AUTO 29012G22KT 10SM -RA FEW026 OVC031 08/03 A2986 RMK AO2 PK WND 31029/2201 WSHFT 2147 PRESRR P0001 T00780033
  • 102207Z AUTO 29017G29KT 10SM -RA SCT014 BKN023 OVC031 09/04 A2982 RMK AO2 PK WND 31029/2201 WSHFT 2147 P0000 T00890044
  • 102152Z AUTO 29017G22KT 10SM -RA FEW014 SCT018 OVC024 11/08 A2979 RMK AO2 RAB15 PRESRR SLP089 P0000 T01060078
  • 102125Z AUTO 20006KT 10SM -RA BKN025 BKN029 OVC060 11/09 A2975 RMK AO2 RAB15 P0000 T01110089

TAF N/A



MetMap, La meteo Aeronautica in un colpo d'occhio ! - Copyright ORBIFLY Dicembre 2007 - Disclaimer

ORBIFLY MET'MAP TEAM :

Programmazione e sviluppo : Alexandra Zaïnal
Concezione : Baudouin d'Aumeries
Aiuto per la programmazione : Marc-Olivier Méhu
Supporto tecnico e logistico : Manuel Goepfert
Aiuto per la traduzione : Arnaldo La Scala

Contatto : metmap@orbifly.com




FONTI E CREDITI :

   NOAA